sensor_id;sensor_type;location;lat;lon;timestamp;pressure;altitude;pressure_sealevel;temperature;humidity
56558;BME280;43358;50.356;12.456;2023-03-21T00:00:52;95614;;;6.3;98.3
56558;BME280;43358;50.356;12.456;2023-03-21T00:01:50;95613;;;6.3;98.3
56558;BME280;43358;50.356;12.456;2023-03-21T00:02:52;95617;;;6.3;98.3
56558;BME280;43358;50.356;12.456;2023-03-21T00:03:54;95616;;;6.3;98.4
56558;BME280;43358;50.356;12.456;2023-03-21T00:05:08;95617;;;6.3;98.6
56558;BME280;43358;50.356;12.456;2023-03-21T00:05:58;95615;;;6.3;97.6
56558;BME280;43358;50.356;12.456;2023-03-21T00:11:18;95614;;;6.3;97.2
56558;BME280;43358;50.356;12.456;2023-03-21T00:11:31;95609;;;6.3;97.5
56558;BME280;43358;50.356;12.456;2023-03-21T00:12:33;95612;;;6.3;98.4
56558;BME280;43358;50.356;12.456;2023-03-21T00:13:35;95611;;;6.2;98.5
56558;BME280;43358;50.356;12.456;2023-03-21T00:14:38;95609;;;6.2;98.5
56558;BME280;43358;50.356;12.456;2023-03-21T00:15:42;95610;;;6.2;98.6
56558;BME280;43358;50.356;12.456;2023-03-21T00:17:46;95611;;;6.2;98.5
56558;BME280;43358;50.356;12.456;2023-03-21T00:18:49;95611;;;6.2;98.5
56558;BME280;43358;50.356;12.456;2023-03-21T00:19:52;95611;;;6.2;98.6
56558;BME280;43358;50.356;12.456;2023-03-21T00:20:56;95603;;;6.2;98.7
56558;BME280;43358;50.356;12.456;2023-03-21T00:21:54;95605;;;6.2;98.7
56558;BME280;43358;50.356;12.456;2023-03-21T00:22:56;95605;;;6.2;98.8
56558;BME280;43358;50.356;12.456;2023-03-21T00:23:59;95605;;;6.2;98.8
56558;BME280;43358;50.356;12.456;2023-03-21T00:25:01;95604;;;6.2;98.8
56558;BME280;43358;50.356;12.456;2023-03-21T00:26:03;95604;;;6.2;98.7
56558;BME280;43358;50.356;12.456;2023-03-21T00:27:41;95603;;;6.2;98.8
56558;BME280;43358;50.356;12.456;2023-03-21T00:33:50;95599;;;6.2;97.7
56558;BME280;43358;50.356;12.456;2023-03-21T00:34:50;95593;;;6.2;97.7
56558;BME280;43358;50.356;12.456;2023-03-21T00:35:50;95593;;;6.2;98.1
56558;BME280;43358;50.356;12.456;2023-03-21T00:36:50;95592;;;6.2;98
56558;BME280;43358;50.356;12.456;2023-03-21T00:37:50;95591;;;6.3;97.4
56558;BME280;43358;50.356;12.456;2023-03-21T00:38:50;95590;;;6.3;96.8
56558;BME280;43358;50.356;12.456;2023-03-21T00:39:50;95593;;;6.3;97.2
56558;BME280;43358;50.356;12.456;2023-03-21T00:40:50;95591;;;6.2;97.6
56558;BME280;43358;50.356;12.456;2023-03-21T00:41:50;95589;;;6.2;98
56558;BME280;43358;50.356;12.456;2023-03-21T00:42:50;95585;;;6.2;98.2
56558;BME280;43358;50.356;12.456;2023-03-21T00:43:50;95586;;;6.2;98.4
56558;BME280;43358;50.356;12.456;2023-03-21T00:44:50;95585;;;6.1;98.4
56558;BME280;43358;50.356;12.456;2023-03-21T00:45:50;95586;;;6.1;98.5
56558;BME280;43358;50.356;12.456;2023-03-21T00:46:50;95581;;;6.1;98.6
56558;BME280;43358;50.356;12.456;2023-03-21T00:47:50;95582;;;6.1;98.6
56558;BME280;43358;50.356;12.456;2023-03-21T00:48:50;95578;;;6.1;98.5
56558;BME280;43358;50.356;12.456;2023-03-21T00:49:50;95578;;;6.1;98.2
56558;BME280;43358;50.356;12.456;2023-03-21T00:50:50;95575;;;6.1;97.8
56558;BME280;43358;50.356;12.456;2023-03-21T00:51:50;95577;;;6.1;97.4
56558;BME280;43358;50.356;12.456;2023-03-21T00:52:50;95575;;;6.1;97.7
56558;BME280;43358;50.356;12.456;2023-03-21T00:53:50;95575;;;6.1;97.8
56558;BME280;43358;50.356;12.456;2023-03-21T00:54:50;95576;;;6;97.8
56558;BME280;43358;50.356;12.456;2023-03-21T00:55:50;95573;;;6;97.8
56558;BME280;43358;50.356;12.456;2023-03-21T00:56:50;95572;;;6;98
56558;BME280;43358;50.356;12.456;2023-03-21T00:57:50;95572;;;6;98.1
56558;BME280;43358;50.356;12.456;2023-03-21T00:58:52;95568;;;5.9;98.3
56558;BME280;43358;50.356;12.456;2023-03-21T00:59:54;95567;;;5.9;98.2
56558;BME280;43358;50.356;12.456;2023-03-21T01:00:57;95566;;;5.9;98.2
56558;BME280;43358;50.356;12.456;2023-03-21T01:02:00;95566;;;5.9;98.3
56558;BME280;43358;50.356;12.456;2023-03-21T01:03:02;95568;;;5.8;98.4
56558;BME280;43358;50.356;12.456;2023-03-21T01:04:04;95567;;;5.8;98.5
56558;BME280;43358;50.356;12.456;2023-03-21T01:05:07;95564;;;5.8;98.5
56558;BME280;43358;50.356;12.456;2023-03-21T01:06:08;95564;;;5.8;98.5
56558;BME280;43358;50.356;12.456;2023-03-21T01:07:10;95562;;;5.8;98.3
56558;BME280;43358;50.356;12.456;2023-03-21T01:08:12;95562;;;5.7;98.3
56558;BME280;43358;50.356;12.456;2023-03-21T01:09:14;95566;;;5.7;98
56558;BME280;43358;50.356;12.456;2023-03-21T01:10:16;95563;;;5.7;97.7
56558;BME280;43358;50.356;12.456;2023-03-21T01:11:19;95563;;;5.7;97.4
56558;BME280;43358;50.356;12.456;2023-03-21T01:12:20;95565;;;5.7;97.4
56558;BME280;43358;50.356;12.456;2023-03-21T01:13:23;95564;;;5.7;97.4
56558;BME280;43358;50.356;12.456;2023-03-21T01:14:24;95563;;;5.6;97.4
56558;BME280;43358;50.356;12.456;2023-03-21T01:15:27;95561;;;5.6;97.5
56558;BME280;43358;50.356;12.456;2023-03-21T01:16:29;95567;;;5.6;97.5
56558;BME280;43358;50.356;12.456;2023-03-21T01:17:31;95567;;;5.5;97.6
56558;BME280;43358;50.356;12.456;2023-03-21T01:18:34;95567;;;5.5;97.4
56558;BME280;43358;50.356;12.456;2023-03-21T01:19:35;95568;;;5.5;97.4
56558;BME280;43358;50.356;12.456;2023-03-21T01:20:38;95568;;;5.5;97.5
56558;BME280;43358;50.356;12.456;2023-03-21T01:21:40;95568;;;5.4;97.4
56558;BME280;43358;50.356;12.456;2023-03-21T01:22:41;95566;;;5.4;97.4
56558;BME280;43358;50.356;12.456;2023-03-21T01:27:06;95563;;;5.3;97.2
56558;BME280;43358;50.356;12.456;2023-03-21T01:28:12;95564;;;5.3;97.2
56558;BME280;43358;50.356;12.456;2023-03-21T01:29:11;95565;;;5.3;97.2
56558;BME280;43358;50.356;12.456;2023-03-21T01:30:12;95567;;;5.2;97.2
56558;BME280;43358;50.356;12.456;2023-03-21T01:31:18;95566;;;5.2;97.2
56558;BME280;43358;50.356;12.456;2023-03-21T01:32:16;95565;;;5.2;97.1
56558;BME280;43358;50.356;12.456;2023-03-21T01:33:18;95567;;;5.2;97.1
56558;BME280;43358;50.356;12.456;2023-03-21T01:34:22;95567;;;5.2;97.3
56558;BME280;43358;50.356;12.456;2023-03-21T01:35:22;95568;;;5.2;97.3
56558;BME280;43358;50.356;12.456;2023-03-21T01:36:24;95565;;;5.1;97.3
56558;BME280;43358;50.356;12.456;2023-03-21T01:37:26;95565;;;5.1;97.4
56558;BME280;43358;50.356;12.456;2023-03-21T01:38:28;95564;;;5.1;97.5
56558;BME280;43358;50.356;12.456;2023-03-21T01:39:30;95564;;;5.1;97.5
56558;BME280;43358;50.356;12.456;2023-03-21T01:40:33;95563;;;5.1;97.5
56558;BME280;43358;50.356;12.456;2023-03-21T01:41:34;95562;;;5.1;97.5
56558;BME280;43358;50.356;12.456;2023-03-21T01:42:36;95561;;;5.1;97.5
56558;BME280;43358;50.356;12.456;2023-03-21T01:43:43;95562;;;5.1;97.5
56558;BME280;43358;50.356;12.456;2023-03-21T01:44:50;95559;;;5.1;97.5
56558;BME280;43358;50.356;12.456;2023-03-21T01:46:44;95562;;;5.1;97.4
56558;BME280;43358;50.356;12.456;2023-03-21T01:46:48;95563;;;5.1;97.5
56558;BME280;43358;50.356;12.456;2023-03-21T01:47:47;95557;;;5.1;97.3
56558;BME280;43358;50.356;12.456;2023-03-21T01:48:49;95555;;;5.1;96.8
56558;BME280;43358;50.356;12.456;2023-03-21T01:49:52;95557;;;5.2;96.3
56558;BME280;43358;50.356;12.456;2023-03-21T01:50:52;95557;;;5.3;95.3
56558;BME280;43358;50.356;12.456;2023-03-21T01:51:57;95560;;;5.2;95.5
56558;BME280;43358;50.356;12.456;2023-03-21T01:52:57;95558;;;5.3;95.4
56558;BME280;43358;50.356;12.456;2023-03-21T01:54:00;95559;;;5.3;95.1
56558;BME280;43358;50.356;12.456;2023-03-21T01:55:02;95557;;;5.4;95
56558;BME280;43358;50.356;12.456;2023-03-21T01:56:05;95557;;;5.4;94.8
56558;BME280;43358;50.356;12.456;2023-03-21T01:57:08;95555;;;5.3;94.7
56558;BME280;43358;50.356;12.456;2023-03-21T01:58:08;95551;;;5.3;95
56558;BME280;43358;50.356;12.456;2023-03-21T01:59:12;95548;;;5.2;95.2
56558;BME280;43358;50.356;12.456;2023-03-21T02:00:13;95547;;;5.2;95.4
56558;BME280;43358;50.356;12.456;2023-03-21T02:01:14;95545;;;5.2;95.2
56558;BME280;43358;50.356;12.456;2023-03-21T02:02:17;95545;;;5.1;95.2
56558;BME280;43358;50.356;12.456;2023-03-21T02:03:18;95545;;;5.1;95.7
56558;BME280;43358;50.356;12.456;2023-03-21T02:04:20;95542;;;5;95.9
56558;BME280;43358;50.356;12.456;2023-03-21T02:05:23;95540;;;5;96.2
56558;BME280;43358;50.356;12.456;2023-03-21T02:06:27;95538;;;5;96
56558;BME280;43358;50.356;12.456;2023-03-21T02:07:27;95539;;;5;96
56558;BME280;43358;50.356;12.456;2023-03-21T02:08:28;95537;;;4.9;96.4
56558;BME280;43358;50.356;12.456;2023-03-21T02:09:33;95534;;;4.8;96.8
56558;BME280;43358;50.356;12.456;2023-03-21T02:11:37;95537;;;4.8;97
56558;BME280;43358;50.356;12.456;2023-03-21T02:32:32;95524;;;4.9;94.5
56558;BME280;43358;50.356;12.456;2023-03-21T02:33:21;95520;;;4.8;94.8
56558;BME280;43358;50.356;12.456;2023-03-21T02:35:24;95521;;;4.6;95.9
56558;BME280;43358;50.356;12.456;2023-03-21T02:36:25;95523;;;4.6;96.5
56558;BME280;43358;50.356;12.456;2023-03-21T02:37:50;95524;;;4.5;97.1
56558;BME280;43358;50.356;12.456;2023-03-21T02:38:51;95526;;;4.4;97.4
56558;BME280;43358;50.356;12.456;2023-03-21T02:39:53;95521;;;4.4;97.7
56558;BME280;43358;50.356;12.456;2023-03-21T02:40:51;95520;;;4.4;98
56558;BME280;43358;50.356;12.456;2023-03-21T02:41:51;95521;;;4.4;98.1
56558;BME280;43358;50.356;12.456;2023-03-21T02:42:52;95514;;;4.3;98.3
56558;BME280;43358;50.356;12.456;2023-03-21T02:43:51;95513;;;4.4;98.4
56558;BME280;43358;50.356;12.456;2023-03-21T02:44:52;95513;;;4.4;98.5
56558;BME280;43358;50.356;12.456;2023-03-21T02:45:51;95512;;;4.4;98.1
56558;BME280;43358;50.356;12.456;2023-03-21T02:46:50;95507;;;4.5;97.6
56558;BME280;43358;50.356;12.456;2023-03-21T02:47:53;95510;;;4.5;97.1
56558;BME280;43358;50.356;12.456;2023-03-21T02:48:59;95511;;;4.6;96.6
56558;BME280;43358;50.356;12.456;2023-03-21T02:49:57;95507;;;4.6;96.2
56558;BME280;43358;50.356;12.456;2023-03-21T02:50:58;95508;;;4.7;95.9
56558;BME280;43358;50.356;12.456;2023-03-21T02:52:00;95512;;;4.6;95.6
56558;BME280;43358;50.356;12.456;2023-03-21T02:53:02;95512;;;4.6;96
56558;BME280;43358;50.356;12.456;2023-03-21T02:54:04;95512;;;4.5;96.6
56558;BME280;43358;50.356;12.456;2023-03-21T02:55:06;95513;;;4.5;96.9
56558;BME280;43358;50.356;12.456;2023-03-21T02:56:08;95512;;;4.5;97.1
56558;BME280;43358;50.356;12.456;2023-03-21T02:57:10;95517;;;4.4;97.4
56558;BME280;43358;50.356;12.456;2023-03-21T02:58:13;95519;;;4.4;97.6
56558;BME280;43358;50.356;12.456;2023-03-21T02:59:14;95519;;;4.4;97.8
56558;BME280;43358;50.356;12.456;2023-03-21T03:00:17;95524;;;4.4;98
56558;BME280;43358;50.356;12.456;2023-03-21T03:01:19;95521;;;4.3;98
56558;BME280;43358;50.356;12.456;2023-03-21T03:02:23;95520;;;4.3;98.1
56558;BME280;43358;50.356;12.456;2023-03-21T03:03:23;95521;;;4.3;98.3
56558;BME280;43358;50.356;12.456;2023-03-21T03:04:25;95517;;;4.3;98.4
56558;BME280;43358;50.356;12.456;2023-03-21T03:05:29;95517;;;4.3;98.5
56558;BME280;43358;50.356;12.456;2023-03-21T03:06:30;95516;;;4.3;98.6
56558;BME280;43358;50.356;12.456;2023-03-21T03:07:35;95519;;;4.3;98.6
56558;BME280;43358;50.356;12.456;2023-03-21T03:08:35;95520;;;4.3;98.7
56558;BME280;43358;50.356;12.456;2023-03-21T03:09:38;95520;;;4.3;98.8
56558;BME280;43358;50.356;12.456;2023-03-21T03:10:40;95519;;;4.3;98.8
56558;BME280;43358;50.356;12.456;2023-03-21T03:11:40;95520;;;4.3;98.8
56558;BME280;43358;50.356;12.456;2023-03-21T03:12:44;95526;;;4.3;98.7
56558;BME280;43358;50.356;12.456;2023-03-21T03:13:50;95517;;;4.3;98.8
56558;BME280;43358;50.356;12.456;2023-03-21T03:14:49;95521;;;4.3;98.7
56558;BME280;43358;50.356;12.456;2023-03-21T03:15:52;95520;;;4.3;98.7
56558;BME280;43358;50.356;12.456;2023-03-21T03:16:54;95522;;;4.3;98.7
56558;BME280;43358;50.356;12.456;2023-03-21T03:17:57;95525;;;4.3;98.6
56558;BME280;43358;50.356;12.456;2023-03-21T03:18:57;95524;;;4.3;98.7
56558;BME280;43358;50.356;12.456;2023-03-21T03:20:03;95526;;;4.4;98.7
56558;BME280;43358;50.356;12.456;2023-03-21T03:21:02;95528;;;4.4;98.7
56558;BME280;43358;50.356;12.456;2023-03-21T03:22:04;95529;;;4.4;98.8
56558;BME280;43358;50.356;12.456;2023-03-21T03:23:08;95531;;;4.4;98.7
56558;BME280;43358;50.356;12.456;2023-03-21T03:24:08;95528;;;4.4;98.2
56558;BME280;43358;50.356;12.456;2023-03-21T03:25:10;95532;;;4.4;98
56558;BME280;43358;50.356;12.456;2023-03-21T03:26:11;95532;;;4.4;97.6
56558;BME280;43358;50.356;12.456;2023-03-21T03:27:14;95533;;;4.4;97.7
56558;BME280;43358;50.356;12.456;2023-03-21T03:28:17;95530;;;4.4;97.9
56558;BME280;43358;50.356;12.456;2023-03-21T03:29:18;95534;;;4.4;98.1
56558;BME280;43358;50.356;12.456;2023-03-21T03:30:20;95531;;;4.4;98.3
56558;BME280;43358;50.356;12.456;2023-03-21T03:31:23;95530;;;4.4;98.3
56558;BME280;43358;50.356;12.456;2023-03-21T03:32:26;95533;;;4.4;98.4
56558;BME280;43358;50.356;12.456;2023-03-21T03:33:26;95536;;;4.4;98.5
56558;BME280;43358;50.356;12.456;2023-03-21T03:34:28;95534;;;4.4;98.5
56558;BME280;43358;50.356;12.456;2023-03-21T03:35:30;95536;;;4.4;98.5
56558;BME280;43358;50.356;12.456;2023-03-21T03:36:32;95535;;;4.4;98.5
56558;BME280;43358;50.356;12.456;2023-03-21T03:37:34;95539;;;4.4;98.5
56558;BME280;43358;50.356;12.456;2023-03-21T03:38:36;95537;;;4.4;98.6
56558;BME280;43358;50.356;12.456;2023-03-21T03:39:38;95538;;;4.4;98.6
56558;BME280;43358;50.356;12.456;2023-03-21T03:40:40;95542;;;4.4;98.6
56558;BME280;43358;50.356;12.456;2023-03-21T03:41:44;95537;;;4.4;98.6
56558;BME280;43358;50.356;12.456;2023-03-21T03:42:46;95539;;;4.4;98.2
56558;BME280;43358;50.356;12.456;2023-03-21T03:43:48;95542;;;4.4;97.9
56558;BME280;43358;50.356;12.456;2023-03-21T03:44:50;95544;;;4.5;97.4
56558;BME280;43358;50.356;12.456;2023-03-21T03:45:53;95546;;;4.6;97.1
56558;BME280;43358;50.356;12.456;2023-03-21T03:46:55;95545;;;4.6;96.9
56558;BME280;43358;50.356;12.456;2023-03-21T03:47:57;95547;;;4.6;97.1
56558;BME280;43358;50.356;12.456;2023-03-21T03:48:59;95547;;;4.5;97.4
56558;BME280;43358;50.356;12.456;2023-03-21T03:50:01;95547;;;4.5;97.7
56558;BME280;43358;50.356;12.456;2023-03-21T03:51:05;95549;;;4.5;97.8
56558;BME280;43358;50.356;12.456;2023-03-21T03:52:07;95548;;;4.5;98
56558;BME280;43358;50.356;12.456;2023-03-21T03:53:09;95551;;;4.5;98.1
56558;BME280;43358;50.356;12.456;2023-03-21T03:54:10;95552;;;4.5;98.3
56558;BME280;43358;50.356;12.456;2023-03-21T03:55:11;95550;;;4.5;98.4
56558;BME280;43358;50.356;12.456;2023-03-21T03:56:13;95549;;;4.5;98.5
56558;BME280;43358;50.356;12.456;2023-03-21T03:57:15;95550;;;4.5;98.5
56558;BME280;43358;50.356;12.456;2023-03-21T03:58:17;95550;;;4.5;98.5
56558;BME280;43358;50.356;12.456;2023-03-21T03:59:19;95552;;;4.4;98.6
56558;BME280;43358;50.356;12.456;2023-03-21T04:00:21;95551;;;4.4;98.7
56558;BME280;43358;50.356;12.456;2023-03-21T04:01:23;95553;;;4.4;98.7
56558;BME280;43358;50.356;12.456;2023-03-21T04:02:25;95553;;;4.4;98.7
56558;BME280;43358;50.356;12.456;2023-03-21T04:03:27;95553;;;4.4;98.7
56558;BME280;43358;50.356;12.456;2023-03-21T04:04:29;95555;;;4.5;98.7
56558;BME280;43358;50.356;12.456;2023-03-21T04:05:31;95553;;;4.5;98.3
56558;BME280;43358;50.356;12.456;2023-03-21T04:06:33;95548;;;4.5;98.3
56558;BME280;43358;50.356;12.456;2023-03-21T04:07:35;95550;;;4.5;98.4
56558;BME280;43358;50.356;12.456;2023-03-21T04:08:37;95549;;;4.5;98.4
56558;BME280;43358;50.356;12.456;2023-03-21T04:09:39;95547;;;4.5;98.6
56558;BME280;43358;50.356;12.456;2023-03-21T04:10:41;95551;;;4.5;98.6
56558;BME280;43358;50.356;12.456;2023-03-21T04:11:43;95552;;;4.5;98.7
56558;BME280;43358;50.356;12.456;2023-03-21T04:12:47;95552;;;4.5;98.7
56558;BME280;43358;50.356;12.456;2023-03-21T04:13:49;95554;;;4.5;98.7
56558;BME280;43358;50.356;12.456;2023-03-21T04:14:51;95555;;;4.5;98.7
56558;BME280;43358;50.356;12.456;2023-03-21T04:15:53;95551;;;4.5;98.6
56558;BME280;43358;50.356;12.456;2023-03-21T04:16:55;95548;;;4.5;98.6
56558;BME280;43358;50.356;12.456;2023-03-21T04:17:57;95548;;;4.5;98.3
56558;BME280;43358;50.356;12.456;2023-03-21T04:18:59;95548;;;4.5;97.8
56558;BME280;43358;50.356;12.456;2023-03-21T04:20:01;95547;;;4.5;97.7
56558;BME280;43358;50.356;12.456;2023-03-21T04:21:05;95549;;;4.5;97.8
56558;BME280;43358;50.356;12.456;2023-03-21T04:22:06;95544;;;4.5;97.9
56558;BME280;43358;50.356;12.456;2023-03-21T04:23:08;95550;;;4.5;97.9
56558;BME280;43358;50.356;12.456;2023-03-21T04:24:10;95546;;;4.5;98.1
56558;BME280;43358;50.356;12.456;2023-03-21T04:25:12;95548;;;4.5;98.2
56558;BME280;43358;50.356;12.456;2023-03-21T04:26:14;95546;;;4.5;98.3
56558;BME280;43358;50.356;12.456;2023-03-21T04:27:17;95547;;;4.5;98.4
56558;BME280;43358;50.356;12.456;2023-03-21T04:28:19;95544;;;4.5;98.5
56558;BME280;43358;50.356;12.456;2023-03-21T04:29:21;95543;;;4.5;98.5
56558;BME280;43358;50.356;12.456;2023-03-21T04:30:23;95543;;;4.5;98.6
56558;BME280;43358;50.356;12.456;2023-03-21T04:31:25;95541;;;4.5;98.6
56558;BME280;43358;50.356;12.456;2023-03-21T04:32:27;95542;;;4.5;98.6
56558;BME280;43358;50.356;12.456;2023-03-21T04:33:29;95542;;;4.5;98.7
56558;BME280;43358;50.356;12.456;2023-03-21T04:34:31;95544;;;4.5;98.7
56558;BME280;43358;50.356;12.456;2023-03-21T04:35:33;95541;;;4.5;98.8
56558;BME280;43358;50.356;12.456;2023-03-21T04:36:35;95539;;;4.6;98.5
56558;BME280;43358;50.356;12.456;2023-03-21T04:37:37;95542;;;4.6;98.2
56558;BME280;43358;50.356;12.456;2023-03-21T04:38:39;95542;;;4.6;98.2
56558;BME280;43358;50.356;12.456;2023-03-21T04:39:41;95544;;;4.6;98.2
56558;BME280;43358;50.356;12.456;2023-03-21T04:40:47;95546;;;4.6;97.8
56558;BME280;43358;50.356;12.456;2023-03-21T04:41:50;95543;;;4.7;97.3
56558;BME280;43358;50.356;12.456;2023-03-21T04:42:52;95544;;;4.8;96.8
56558;BME280;43358;50.356;12.456;2023-03-21T04:43:54;95543;;;4.8;96.7
56558;BME280;43358;50.356;12.456;2023-03-21T04:44:56;95541;;;4.9;96.5
56558;BME280;43358;50.356;12.456;2023-03-21T04:45:59;95542;;;4.9;96.5
56558;BME280;43358;50.356;12.456;2023-03-21T04:47:01;95541;;;4.9;96.2
56558;BME280;43358;50.356;12.456;2023-03-21T04:48:03;95540;;;4.9;96
56558;BME280;43358;50.356;12.456;2023-03-21T04:49:06;95541;;;4.9;96
56558;BME280;43358;50.356;12.456;2023-03-21T04:50:08;95538;;;4.9;96.2
56558;BME280;43358;50.356;12.456;2023-03-21T04:51:10;95539;;;4.9;96.4
56558;BME280;43358;50.356;12.456;2023-03-21T04:52:12;95534;;;4.9;96.4
56558;BME280;43358;50.356;12.456;2023-03-21T04:53:14;95535;;;4.9;96.3
56558;BME280;43358;50.356;12.456;2023-03-21T04:54:17;95536;;;4.9;96.3
56558;BME280;43358;50.356;12.456;2023-03-21T04:55:19;95537;;;4.9;96.4
56558;BME280;43358;50.356;12.456;2023-03-21T04:56:21;95537;;;4.9;96.5
56558;BME280;43358;50.356;12.456;2023-03-21T04:57:23;95538;;;4.9;96.5
56558;BME280;43358;50.356;12.456;2023-03-21T04:58:25;95539;;;4.9;96.6
56558;BME280;43358;50.356;12.456;2023-03-21T04:59:27;95539;;;4.9;96.6
56558;BME280;43358;50.356;12.456;2023-03-21T05:00:29;95538;;;4.9;96.6
56558;BME280;43358;50.356;12.456;2023-03-21T05:01:31;95538;;;4.9;96.7
56558;BME280;43358;50.356;12.456;2023-03-21T05:02:33;95535;;;4.9;96.9
56558;BME280;43358;50.356;12.456;2023-03-21T05:03:35;95534;;;4.9;96.8
56558;BME280;43358;50.356;12.456;2023-03-21T05:04:37;95536;;;4.9;96.8
56558;BME280;43358;50.356;12.456;2023-03-21T05:05:39;95535;;;4.8;96.8
56558;BME280;43358;50.356;12.456;2023-03-21T05:08:47;95534;;;4.7;97.5
56558;BME280;43358;50.356;12.456;2023-03-21T05:09:49;95537;;;4.7;97.8
56558;BME280;43358;50.356;12.456;2023-03-21T05:10:51;95533;;;4.7;97.8
56558;BME280;43358;50.356;12.456;2023-03-21T05:11:53;95534;;;4.7;97.9
56558;BME280;43358;50.356;12.456;2023-03-21T05:12:55;95536;;;4.7;98
56558;BME280;43358;50.356;12.456;2023-03-21T05:13:57;95535;;;4.7;98.1
56558;BME280;43358;50.356;12.456;2023-03-21T05:14:59;95538;;;4.7;98
56558;BME280;43358;50.356;12.456;2023-03-21T05:16:01;95538;;;4.7;98.1
56558;BME280;43358;50.356;12.456;2023-03-21T05:17:03;95536;;;4.7;97.9
56558;BME280;43358;50.356;12.456;2023-03-21T05:18:05;95538;;;4.7;97.9
56558;BME280;43358;50.356;12.456;2023-03-21T05:19:07;95537;;;4.7;98.2
56558;BME280;43358;50.356;12.456;2023-03-21T05:20:09;95537;;;4.7;98.4
56558;BME280;43358;50.356;12.456;2023-03-21T05:21:11;95537;;;4.6;98.6
56558;BME280;43358;50.356;12.456;2023-03-21T05:22:13;95538;;;4.6;98.8
56558;BME280;43358;50.356;12.456;2023-03-21T05:23:15;95541;;;4.6;98.8
56558;BME280;43358;50.356;12.456;2023-03-21T05:24:18;95544;;;4.6;98.8
56558;BME280;43358;50.356;12.456;2023-03-21T05:25:20;95545;;;4.6;98.8
56558;BME280;43358;50.356;12.456;2023-03-21T05:26:22;95545;;;4.6;98.8
56558;BME280;43358;50.356;12.456;2023-03-21T05:27:24;95545;;;4.5;98.8
56558;BME280;43358;50.356;12.456;2023-03-21T05:28:26;95550;;;4.5;98.8
56558;BME280;43358;50.356;12.456;2023-03-21T05:29:28;95548;;;4.5;98.8
56558;BME280;43358;50.356;12.456;2023-03-21T05:30:30;95550;;;4.5;98.8
56558;BME280;43358;50.356;12.456;2023-03-21T05:31:32;95550;;;4.5;98.8
56558;BME280;43358;50.356;12.456;2023-03-21T05:32:34;95550;;;4.5;98.8
56558;BME280;43358;50.356;12.456;2023-03-21T05:33:37;95550;;;4.5;98.8
56558;BME280;43358;50.356;12.456;2023-03-21T05:34:39;95550;;;4.5;98.8
56558;BME280;43358;50.356;12.456;2023-03-21T05:35:41;95546;;;4.5;98.8
56558;BME280;43358;50.356;12.456;2023-03-21T05:36:43;95547;;;4.6;98.8
56558;BME280;43358;50.356;12.456;2023-03-21T05:37:47;95547;;;4.6;98.8
56558;BME280;43358;50.356;12.456;2023-03-21T05:38:49;95546;;;4.5;98.8
56558;BME280;43358;50.356;12.456;2023-03-21T05:39:51;95547;;;4.6;98.8
56558;BME280;43358;50.356;12.456;2023-03-21T05:40:53;95550;;;4.6;98.8
56558;BME280;43358;50.356;12.456;2023-03-21T05:41:55;95548;;;4.6;98.8
56558;BME280;43358;50.356;12.456;2023-03-21T05:43:11;95552;;;4.6;98.8
56558;BME280;43358;50.356;12.456;2023-03-21T05:43:59;95552;;;4.6;98.8
56558;BME280;43358;50.356;12.456;2023-03-21T05:46:03;95554;;;4.6;98.8
56558;BME280;43358;50.356;12.456;2023-03-21T05:47:05;95555;;;4.6;98.8
56558;BME280;43358;50.356;12.456;2023-03-21T05:48:07;95554;;;4.6;98.8
56558;BME280;43358;50.356;12.456;2023-03-21T05:49:09;95551;;;4.6;98.8
56558;BME280;43358;50.356;12.456;2023-03-21T05:50:11;95552;;;4.6;98.8
56558;BME280;43358;50.356;12.456;2023-03-21T05:51:13;95551;;;4.6;98.8
56558;BME280;43358;50.356;12.456;2023-03-21T05:52:15;95550;;;4.7;98.8
56558;BME280;43358;50.356;12.456;2023-03-21T05:53:17;95553;;;4.7;98.8
56558;BME280;43358;50.356;12.456;2023-03-21T05:54:19;95553;;;4.7;98.8
56558;BME280;43358;50.356;12.456;2023-03-21T05:55:21;95550;;;4.7;98.8
56558;BME280;43358;50.356;12.456;2023-03-21T05:56:23;95550;;;4.7;98.8
56558;BME280;43358;50.356;12.456;2023-03-21T05:57:25;95552;;;4.7;98.8
56558;BME280;43358;50.356;12.456;2023-03-21T05:58:27;95552;;;4.7;98.8
56558;BME280;43358;50.356;12.456;2023-03-21T05:59:29;95553;;;4.7;98.8
56558;BME280;43358;50.356;12.456;2023-03-21T06:00:31;95554;;;4.7;98.8
56558;BME280;43358;50.356;12.456;2023-03-21T06:01:34;95556;;;4.7;98.8
56558;BME280;43358;50.356;12.456;2023-03-21T06:02:36;95556;;;4.8;98.8
56558;BME280;43358;50.356;12.456;2023-03-21T06:03:38;95552;;;4.8;98.8
56558;BME280;43358;50.356;12.456;2023-03-21T06:04:40;95554;;;4.8;98.8
56558;BME280;43358;50.356;12.456;2023-03-21T06:05:43;95553;;;4.8;98.8
56558;BME280;43358;50.356;12.456;2023-03-21T06:06:50;95554;;;4.8;98.8
56558;BME280;43358;50.356;12.456;2023-03-21T06:07:50;95555;;;4.8;98.8
56558;BME280;43358;50.356;12.456;2023-03-21T06:08:50;95559;;;4.8;98.8
56558;BME280;43358;50.356;12.456;2023-03-21T06:09:52;95557;;;4.8;98.8
56558;BME280;43358;50.356;12.456;2023-03-21T06:10:54;95559;;;4.8;98.8
56558;BME280;43358;50.356;12.456;2023-03-21T06:11:56;95558;;;4.9;98.8
56558;BME280;43358;50.356;12.456;2023-03-21T06:12:58;95556;;;4.9;98.8
56558;BME280;43358;50.356;12.456;2023-03-21T06:14:00;95557;;;4.9;98.8
56558;BME280;43358;50.356;12.456;2023-03-21T06:15:02;95558;;;4.9;98.8
56558;BME280;43358;50.356;12.456;2023-03-21T06:16:04;95560;;;4.9;98.8
56558;BME280;43358;50.356;12.456;2023-03-21T06:17:06;95556;;;4.9;98.8
56558;BME280;43358;50.356;12.456;2023-03-21T06:18:23;95560;;;4.9;98.8
56558;BME280;43358;50.356;12.456;2023-03-21T06:19:11;95560;;;4.9;98.8
56558;BME280;43358;50.356;12.456;2023-03-21T06:20:13;95557;;;4.9;98.8
56558;BME280;43358;50.356;12.456;2023-03-21T06:21:15;95559;;;5;98.8
56558;BME280;43358;50.356;12.456;2023-03-21T06:22:17;95556;;;5;98.8
56558;BME280;43358;50.356;12.456;2023-03-21T06:23:19;95558;;;5;98.8
56558;BME280;43358;50.356;12.456;2023-03-21T06:24:21;95558;;;5;98.8
56558;BME280;43358;50.356;12.456;2023-03-21T06:25:23;95558;;;5.1;98.8
56558;BME280;43358;50.356;12.456;2023-03-21T06:26:25;95560;;;5.1;98.8
56558;BME280;43358;50.356;12.456;2023-03-21T06:27:27;95560;;;5.1;98.8
56558;BME280;43358;50.356;12.456;2023-03-21T06:28:29;95562;;;5.2;98.8
56558;BME280;43358;50.356;12.456;2023-03-21T06:29:31;95560;;;5.2;98.8
56558;BME280;43358;50.356;12.456;2023-03-21T06:30:33;95559;;;5.2;98.8
56558;BME280;43358;50.356;12.456;2023-03-21T06:31:35;95562;;;5.2;98.8